Time;durP1;ratioP1;P1;durP2;ratioP2;P2;SDS_P1;SDS_P2;PMS_P1;PMS_P2;Temp;Humidity;BMP_temperature;BMP_pressure;BME280_temperature;BME280_humidity;BME280_pressure;Samples;Min_cycle;Max_cycle;Signal;HPM_P1;HPM_P2
2021/12/28 00:00:54;;;;;;;3.03;1.60;;;6.40;99.90;;;;;;4989572;28;20033;-72
2021/12/28 00:03:19;;;;;;;4.32;1.70;;;6.20;99.90;;;;;;4988955;28;20218;-73
2021/12/28 00:05:45;;;;;;;2.70;1.30;;;6.10;99.90;;;;;;4987833;28;20039;-72
2021/12/28 00:08:13;;;;;;;4.28;1.80;;;6.00;99.90;;;;;;4986884;28;20040;-72
2021/12/28 00:10:38;;;;;;;3.25;2.00;;;5.90;99.90;;;;;;4989627;28;20057;-72
2021/12/28 00:13:04;;;;;;;2.78;1.40;;;5.90;99.90;;;;;;4989002;28;20034;-73
2021/12/28 00:15:34;;;;;;;4.68;1.80;;;5.80;99.90;;;;;;4989789;28;20030;-72
2021/12/28 00:18:04;;;;;;;5.32;1.90;;;5.80;99.90;;;;;;4989774;28;20031;-73
2021/12/28 00:20:42;;;;;;;3.72;1.98;;;5.80;99.90;;;;;;4988425;28;20030;-73
2021/12/28 00:23:13;;;;;;;3.53;1.92;;;5.70;99.90;;;;;;4993714;28;20042;-72
2021/12/28 00:25:39;;;;;;;4.05;1.75;;;5.70;99.90;;;;;;4987888;28;20034;-72
2021/12/28 00:28:05;;;;;;;3.83;1.95;;;5.70;99.90;;;;;;4987612;28;20487;-73
2021/12/28 00:30:31;;;;;;;3.65;1.70;;;5.60;99.90;;;;;;4988226;28;20034;-73
2021/12/28 00:32:57;;;;;;;3.60;1.60;;;5.50;99.90;;;;;;4989148;28;20493;-73
2021/12/28 00:35:25;;;;;;;3.38;1.75;;;5.50;99.90;;;;;;4990603;28;20065;-73
2021/12/28 00:37:51;;;;;;;5.30;2.28;;;5.40;99.90;;;;;;4989592;28;20042;-73
2021/12/28 00:40:17;;;;;;;4.47;2.10;;;5.40;99.90;;;;;;4988379;28;20037;-73
2021/12/28 00:42:44;;;;;;;4.68;1.80;;;5.40;99.90;;;;;;4987628;28;20026;-72
2021/12/28 00:45:11;;;;;;;4.97;2.42;;;5.30;99.90;;;;;;4988412;28;20105;-73
2021/12/28 00:47:37;;;;;;;4.30;1.80;;;5.20;99.90;;;;;;4988978;28;20078;-72
2021/12/28 00:50:04;;;;;;;6.00;3.00;;;5.20;99.90;;;;;;4988520;28;20026;-73
2021/12/28 00:52:29;;;;;;;4.35;2.00;;;5.20;99.90;;;;;;4990578;28;20398;-72
2021/12/28 00:54:56;;;;;;;5.63;2.80;;;5.20;99.90;;;;;;4996761;28;20027;-72
2021/12/28 00:57:22;;;;;;;5.22;2.80;;;5.10;99.90;;;;;;4988127;28;20038;-72
2021/12/28 00:59:47;;;;;;;11.07;2.95;;;5.10;99.90;;;;;;4989194;28;20053;-72
2021/12/28 01:02:13;;;;;;;6.15;2.50;;;5.00;99.90;;;;;;4987821;28;20034;-73
2021/12/28 01:04:39;;;;;;;8.68;2.88;;;5.00;99.90;;;;;;4989282;28;20035;-72
2021/12/28 01:07:05;;;;;;;6.82;2.72;;;5.00;99.90;;;;;;4988222;28;20112;-72
2021/12/28 01:09:31;;;;;;;16.55;3.20;;;4.90;99.90;;;;;;4988516;28;20053;-73
2021/12/28 01:11:59;;;;;;;91.25;4.20;;;4.90;99.90;;;;;;4988538;28;20501;-72
2021/12/28 01:14:25;;;;;;;29.35;2.88;;;4.80;99.90;;;;;;4987978;28;20491;-73
2021/12/28 01:16:50;;;;;;;144.80;4.53;;;4.70;99.90;;;;;;4988697;28;20085;-72
2021/12/28 01:19:16;;;;;;;88.30;4.13;;;4.60;99.90;;;;;;4991593;28;20030;-72
2021/12/28 01:21:42;;;;;;;50.05;4.35;;;4.60;99.90;;;;;;4992597;28;20034;-73
2021/12/28 01:24:07;;;;;;;19.27;3.60;;;4.50;99.90;;;;;;4991049;28;20062;-73
2021/12/28 01:26:33;;;;;;;25.13;3.58;;;4.40;99.90;;;;;;4992581;28;20034;-72
2021/12/28 01:28:59;;;;;;;36.85;3.47;;;4.40;99.90;;;;;;4992561;28;20027;-72
2021/12/28 01:31:25;;;;;;;7.80;3.45;;;4.40;99.90;;;;;;5005198;28;20521;-72
2021/12/28 01:33:50;;;;;;;16.75;3.00;;;4.40;99.90;;;;;;4992986;28;20034;-71
2021/12/28 01:36:16;;;;;;;27.02;3.50;;;4.40;99.90;;;;;;4991332;28;20076;-72
2021/12/28 01:38:42;;;;;;;22.05;4.20;;;4.40;99.90;;;;;;4999245;28;20053;-73
2021/12/28 01:41:10;;;;;;;7.18;3.00;;;4.30;99.90;;;;;;4992420;28;20038;-73
2021/12/28 01:43:40;;;;;;;6.38;3.08;;;4.20;99.90;;;;;;4991093;28;20170;-72
2021/12/28 01:46:07;;;;;;;64.28;3.58;;;4.10;99.90;;;;;;4991982;28;20030;-72
2021/12/28 01:48:37;;;;;;;47.45;3.40;;;4.10;99.90;;;;;;4992190;28;20046;-73
2021/12/28 01:51:09;;;;;;;3.88;2.00;;;3.90;99.90;;;;;;4991725;28;20026;-72
2021/12/28 01:53:35;;;;;;;4.68;2.42;;;3.80;99.90;;;;;;4992202;28;20037;-73
2021/12/28 01:56:07;;;;;;;8.68;2.70;;;4.00;99.90;;;;;;4992826;28;20052;-73
2021/12/28 01:58:32;;;;;;;6.00;2.35;;;4.10;99.90;;;;;;4991237;28;20037;-72
2021/12/28 02:00:58;;;;;;;6.35;1.90;;;4.10;99.90;;;;;;4992279;28;20038;-73
2021/12/28 02:03:26;;;;;;;8.43;2.10;;;4.20;99.90;;;;;;4991599;28;20030;-72
2021/12/28 02:05:52;;;;;;;121.97;5.85;;;4.20;99.90;;;;;;4990326;28;20065;-72
2021/12/28 02:08:21;;;;;;;174.15;5.30;;;4.20;99.90;;;;;;4991380;28;20065;-72
2021/12/28 02:10:48;;;;;;;146.07;5.38;;;4.00;99.90;;;;;;4991140;28;20483;-72
2021/12/28 02:13:15;;;;;;;16.13;2.45;;;3.80;99.90;;;;;;4989946;28;20030;-72
2021/12/28 02:15:40;;;;;;;6.60;1.80;;;3.70;99.90;;;;;;4991602;28;20034;-72
2021/12/28 02:18:10;;;;;;;5.32;1.77;;;3.70;99.90;;;;;;4991126;28;20390;-73
2021/12/28 02:20:37;;;;;;;7.72;2.35;;;3.90;99.90;;;;;;4990461;28;20030;-72
2021/12/28 02:23:04;;;;;;;6.20;2.38;;;4.00;99.90;;;;;;4992011;28;20030;-72
2021/12/28 02:25:31;;;;;;;5.30;2.20;;;4.10;99.90;;;;;;4990844;28;20030;-73
2021/12/28 02:27:58;;;;;;;8.20;2.83;;;4.10;99.90;;;;;;4991710;28;20089;-72
2021/12/28 02:30:24;;;;;;;5.63;2.67;;;4.00;99.90;;;;;;4994965;28;20030;-73
2021/12/28 02:32:50;;;;;;;6.97;2.50;;;3.70;99.90;;;;;;4991704;28;20057;-72
2021/12/28 02:35:26;;;;;;;5.88;2.15;;;3.60;99.90;;;;;;4990768;28;20419;-72
2021/12/28 02:37:54;;;;;;;6.53;2.25;;;3.70;99.90;;;;;;4990572;28;20498;-73
2021/12/28 02:40:22;;;;;;;5.10;2.00;;;3.70;99.90;;;;;;4991290;28;20046;-72
2021/12/28 02:42:49;;;;;;;9.55;1.98;;;3.60;99.90;;;;;;4991361;28;20109;-72
2021/12/28 02:45:27;;;;;;;18.15;3.63;;;3.90;99.90;;;;;;4990236;28;20644;-73
2021/12/28 02:47:53;;;;;;;8.77;3.13;;;4.10;99.90;;;;;;4990471;28;20034;-73
2021/12/28 02:50:20;;;;;;;6.45;2.45;;;4.00;99.90;;;;;;4990421;28;20034;-72
2021/12/28 02:52:46;;;;;;;10.70;3.63;;;3.90;99.90;;;;;;4990900;28;20037;-73
2021/12/28 02:55:14;;;;;;;9.00;3.47;;;3.80;99.90;;;;;;4990947;28;20030;-73
2021/12/28 02:57:52;;;;;;;9.10;3.03;;;3.70;99.90;;;;;;4990612;28;20034;-72
2021/12/28 03:00:33;;;;;;;8.88;2.50;;;3.60;99.90;;;;;;4990392;28;20858;-73
2021/12/28 03:02:59;;;;;;;6.97;2.70;;;3.70;99.90;;;;;;4984961;28;20113;-72
2021/12/28 03:05:25;;;;;;;8.73;3.05;;;3.80;99.90;;;;;;4988425;28;20157;-71
2021/12/28 03:07:51;;;;;;;8.55;2.45;;;3.70;99.90;;;;;;4989021;28;20742;-72
2021/12/28 03:10:17;;;;;;;5.10;2.42;;;3.70;99.90;;;;;;4990622;28;20042;-72
2021/12/28 03:12:42;;;;;;;8.52;2.38;;;3.70;99.90;;;;;;4990679;28;20033;-72
2021/12/28 03:15:08;;;;;;;11.02;2.10;;;3.70;99.90;;;;;;4990502;28;20471;-73
2021/12/28 03:17:34;;;;;;;8.50;2.60;;;3.80;99.90;;;;;;5001788;28;20740;-73
2021/12/28 03:19:59;;;;;;;7.82;2.25;;;3.80;99.90;;;;;;4990669;28;20057;-72
2021/12/28 03:22:25;;;;;;;7.53;2.55;;;3.70;99.90;;;;;;4989772;28;20451;-72
2021/12/28 03:24:51;;;;;;;5.03;2.05;;;3.70;99.90;;;;;;4989960;28;20026;-72
2021/12/28 03:27:16;;;;;;;9.32;2.15;;;3.60;99.90;;;;;;4990976;28;20027;-72
2021/12/28 03:29:42;;;;;;;13.32;2.53;;;3.60;99.90;;;;;;4988921;28;20034;-73
2021/12/28 03:32:08;;;;;;;6.85;1.98;;;3.80;99.90;;;;;;4989696;28;20026;-72
2021/12/28 03:34:33;;;;;;;22.00;3.40;;;4.00;99.90;;;;;;4989469;28;20041;-73
2021/12/28 03:36:59;;;;;;;62.83;4.50;;;4.00;99.90;;;;;;4988801;28;20487;-72
2021/12/28 03:39:25;;;;;;;6.13;2.33;;;3.70;99.90;;;;;;4989332;28;20034;-73
2021/12/28 03:41:50;;;;;;;9.25;2.25;;;3.50;99.90;;;;;;4988292;28;20030;-72
2021/12/28 03:44:16;;;;;;;94.57;5.85;;;3.50;99.90;;;;;;4989374;28;20038;-74
2021/12/28 03:46:42;;;;;;;10.93;2.47;;;3.80;99.90;;;;;;4996139;28;20034;-72
2021/12/28 03:49:07;;;;;;;8.38;2.65;;;3.60;99.90;;;;;;4990446;28;20089;-72
2021/12/28 03:51:33;;;;;;;9.18;2.05;;;3.60;99.90;;;;;;4998719;28;20088;-73
2021/12/28 03:53:59;;;;;;;12.43;2.65;;;3.60;99.90;;;;;;4990249;28;20092;-72
2021/12/28 03:56:24;;;;;;;12.25;2.40;;;3.80;99.90;;;;;;4989637;28;20057;-72
2021/12/28 03:58:51;;;;;;;9.30;3.58;;;3.90;99.90;;;;;;4990003;28;20030;-72
2021/12/28 04:01:20;;;;;;;106.55;6.25;;;3.50;99.90;;;;;;4991087;28;20050;-73
2021/12/28 04:03:46;;;;;;;9.27;2.83;;;3.20;99.90;;;;;;4989895;28;20134;-71
2021/12/28 04:06:12;;;;;;;13.43;2.67;;;3.10;99.90;;;;;;4989896;28;20116;-72
2021/12/28 04:08:40;;;;;;;13.27;3.00;;;3.40;99.90;;;;;;4995273;28;20042;-72
2021/12/28 04:11:40;;;;;;;11.80;3.30;;;3.60;99.90;;;;;;4988214;28;20133;-72
2021/12/28 04:14:07;;;;;;;7.22;2.80;;;3.50;99.90;;;;;;4985165;28;20441;-72
2021/12/28 04:16:35;;;;;;;21.58;3.50;;;3.30;99.90;;;;;;4988382;28;20034;-73
2021/12/28 04:19:04;;;;;;;9.82;3.40;;;3.00;99.90;;;;;;4989414;28;20026;-72
2021/12/28 04:21:29;;;;;;;9.95;3.28;;;2.90;99.90;;;;;;4987844;28;20041;-73
2021/12/28 04:23:55;;;;;;;7.30;3.30;;;3.00;99.90;;;;;;4993641;28;20030;-72
2021/12/28 04:26:22;;;;;;;7.45;2.90;;;2.90;99.90;;;;;;4991747;28;20065;-73
2021/12/28 04:28:48;;;;;;;7.97;2.88;;;2.90;99.90;;;;;;4989609;28;20058;-72
2021/12/28 04:31:14;;;;;;;7.82;3.15;;;2.90;99.90;;;;;;4989401;28;20026;-72
2021/12/28 04:33:40;;;;;;;5.30;2.22;;;2.90;99.90;;;;;;4989388;28;20390;-73
2021/12/28 04:36:11;;;;;;;15.32;3.10;;;3.00;99.90;;;;;;4989547;28;20038;-72
2021/12/28 04:38:38;;;;;;;7.50;2.85;;;3.10;99.90;;;;;;4994239;28;20033;-72
2021/12/28 04:41:05;;;;;;;13.10;3.38;;;3.20;99.90;;;;;;4990499;28;20041;-72
2021/12/28 04:43:31;;;;;;;12.32;3.70;;;3.40;99.90;;;;;;4985831;28;20038;-71
2021/12/28 04:45:57;;;;;;;15.00;3.50;;;3.60;99.90;;;;;;4996337;28;20046;-73
2021/12/28 04:48:23;;;;;;;10.35;2.72;;;3.80;99.90;;;;;;4992131;28;20038;-73
2021/12/28 04:50:49;;;;;;;10.25;3.35;;;3.90;99.90;;;;;;4989096;28;20026;-73
2021/12/28 04:53:15;;;;;;;11.10;3.05;;;3.90;99.90;;;;;;4995903;28;20080;-73
2021/12/28 04:55:46;;;;;;;12.23;3.08;;;4.00;99.90;;;;;;4987055;28;20047;-73
2021/12/28 04:58:13;;;;;;;5.53;1.98;;;3.90;99.90;;;;;;4989195;28;20049;-72
2021/12/28 05:00:41;;;;;;;11.07;2.40;;;3.70;99.90;;;;;;4988015;28;20033;-72
2021/12/28 05:03:06;;;;;;;5.72;2.30;;;3.50;99.90;;;;;;4988903;28;20078;-72
2021/12/28 05:05:33;;;;;;;10.25;2.38;;;3.50;99.90;;;;;;4988166;28;20046;-72
2021/12/28 05:07:59;;;;;;;15.05;3.22;;;3.70;99.90;;;;;;4988289;28;20042;-72
2021/12/28 05:10:25;;;;;;;11.50;2.63;;;3.70;99.90;;;;;;4988876;28;20040;-72
2021/12/28 05:12:51;;;;;;;13.38;2.72;;;3.90;99.90;;;;;;4988624;28;20034;-72
2021/12/28 05:15:18;;;;;;;14.70;3.17;;;4.10;99.90;;;;;;4989183;28;20034;-72
2021/12/28 05:17:44;;;;;;;11.25;2.70;;;4.30;99.90;;;;;;4988391;28;20065;-72
2021/12/28 05:20:10;;;;;;;7.40;2.80;;;4.40;99.90;;;;;;4989269;28;20050;-72
2021/12/28 05:22:36;;;;;;;11.02;2.92;;;4.40;99.90;;;;;;4988033;28;20034;-73
2021/12/28 05:25:03;;;;;;;8.25;2.42;;;4.50;99.90;;;;;;4989383;28;20391;-73
2021/12/28 05:27:29;;;;;;;6.65;2.20;;;4.70;99.90;;;;;;4987655;28;20046;-71
2021/12/28 05:29:56;;;;;;;7.97;2.83;;;4.90;99.90;;;;;;4993735;28;20033;-72
2021/12/28 05:32:22;;;;;;;5.13;2.55;;;5.20;99.90;;;;;;4988149;28;20113;-73
2021/12/28 05:34:47;;;;;;;5.75;2.45;;;5.40;99.90;;;;;;4988951;28;20109;-72
2021/12/28 05:37:13;;;;;;;5.53;2.30;;;5.30;99.90;;;;;;4987282;28;20057;-72
2021/12/28 05:39:39;;;;;;;5.75;2.53;;;5.40;99.90;;;;;;4988006;28;20044;-72
2021/12/28 05:42:05;;;;;;;10.60;3.28;;;5.40;99.90;;;;;;4987993;28;20084;-73
2021/12/28 05:44:31;;;;;;;75.53;35.90;;;5.40;99.90;;;;;;4985708;28;21601;-73
2021/12/28 05:46:57;;;;;;;16.77;7.65;;;5.40;99.90;;;;;;4988349;28;20038;-73
2021/12/28 05:49:23;;;;;;;9.25;4.45;;;5.50;99.90;;;;;;4986930;28;20061;-72
2021/12/28 05:51:49;;;;;;;10.30;4.38;;;5.60;99.90;;;;;;4989174;28;20034;-71
2021/12/28 05:54:14;;;;;;;10.35;3.88;;;5.60;99.90;;;;;;4987413;28;20467;-73
2021/12/28 05:56:41;;;;;;;19.60;5.95;;;5.70;99.90;;;;;;4988420;28;20680;-72
2021/12/28 05:59:07;;;;;;;11.60;4.13;;;5.80;99.90;;;;;;4986116;28;20431;-73
2021/12/28 06:01:33;;;;;;;10.25;4.15;;;5.90;99.90;;;;;;4986006;28;20081;-73
2021/12/28 06:03:59;;;;;;;13.27;4.10;;;6.00;99.90;;;;;;4988541;28;20073;-72
2021/12/28 06:06:25;;;;;;;9.70;3.40;;;6.10;99.90;;;;;;4994917;28;20045;-72
2021/12/28 06:08:51;;;;;;;11.73;3.45;;;6.30;99.90;;;;;;4991784;28;20038;-72
2021/12/28 06:11:17;;;;;;;8.98;2.95;;;6.40;99.90;;;;;;4999540;28;20451;-72
2021/12/28 06:13:43;;;;;;;5.75;2.53;;;6.60;99.90;;;;;;5007218;28;20054;-72
2021/12/28 06:16:10;;;;;;;9.23;2.60;;;6.70;99.90;;;;;;4991480;28;20050;-72
2021/12/28 06:18:36;;;;;;;7.18;2.30;;;6.90;99.90;;;;;;4991996;28;20058;-72
2021/12/28 06:21:03;;;;;;;7.45;2.15;;;6.90;99.90;;;;;;4993534;28;20092;-71
2021/12/28 06:23:28;;;;;;;4.68;2.17;;;7.00;99.90;;;;;;4988992;28;20068;-73
2021/12/28 06:25:54;;;;;;;7.95;1.75;;;7.10;99.90;;;;;;4991223;28;20061;-73
2021/12/28 06:28:20;;;;;;;5.60;2.05;;;7.10;99.90;;;;;;4997163;28;20088;-73
2021/12/28 06:30:46;;;;;;;4.00;1.60;;;7.20;99.90;;;;;;4988958;28;20593;-73
2021/12/28 06:33:11;;;;;;;4.25;1.77;;;7.30;99.90;;;;;;4997113;28;20065;-73
2021/12/28 06:35:37;;;;;;;4.07;2.03;;;7.30;99.90;;;;;;4990610;28;20077;-70
2021/12/28 06:38:03;;;;;;;4.05;1.85;;;7.20;99.90;;;;;;4998028;28;20046;-72
2021/12/28 06:40:29;;;;;;;4.45;1.75;;;7.30;99.90;;;;;;4990707;28;20034;-72
2021/12/28 06:42:55;;;;;;;4.47;1.80;;;7.40;99.90;;;;;;4988855;28;20076;-72
2021/12/28 06:45:21;;;;;;;3.60;1.50;;;7.60;99.90;;;;;;4991799;28;20030;-72
2021/12/28 06:47:47;;;;;;;5.00;1.90;;;7.50;99.90;;;;;;4991720;28;20039;-72
2021/12/28 06:50:13;;;;;;;5.82;1.83;;;7.50;99.90;;;;;;5006001;28;20133;-73
2021/12/28 06:52:40;;;;;;;5.25;2.10;;;7.50;99.90;;;;;;5000601;28;20118;-73
2021/12/28 06:55:07;;;;;;;4.05;1.95;;;7.50;99.90;;;;;;4994845;28;20391;-73
2021/12/28 06:57:33;;;;;;;5.47;1.70;;;7.40;99.90;;;;;;5008363;28;20076;-72
2021/12/28 06:59:59;;;;;;;3.40;1.30;;;7.50;99.90;;;;;;4996024;28;20046;-72
2021/12/28 07:02:25;;;;;;;4.10;1.60;;;7.50;99.90;;;;;;4997290;28;20514;-73
2021/12/28 07:04:52;;;;;;;2.70;1.08;;;7.50;99.90;;;;;;4991222;28;20026;-73
2021/12/28 07:07:19;;;;;;;5.07;1.50;;;7.50;99.90;;;;;;4998117;28;20046;-72
2021/12/28 07:09:45;;;;;;;2.50;1.30;;;7.40;99.90;;;;;;4991688;28;20553;-72
2021/12/28 07:12:11;;;;;;;5.07;1.60;;;7.40;99.90;;;;;;5001606;28;20034;-71
2021/12/28 07:14:37;;;;;;;4.43;1.60;;;7.40;99.90;;;;;;4990343;28;20046;-73
2021/12/28 07:17:03;;;;;;;4.75;1.88;;;7.50;99.90;;;;;;4988602;28;20041;-72
2021/12/28 07:19:29;;;;;;;5.50;1.33;;;7.50;99.90;;;;;;4991157;28;20034;-72
2021/12/28 07:21:55;;;;;;;2.50;1.10;;;7.50;99.90;;;;;;4991103;28;20050;-73
2021/12/28 07:24:20;;;;;;;2.45;1.00;;;7.50;99.90;;;;;;4996504;28;20030;-74
2021/12/28 07:26:46;;;;;;;2.05;1.00;;;7.50;99.90;;;;;;4989628;28;20255;-73
2021/12/28 07:29:13;;;;;;;2.63;1.10;;;7.50;99.90;;;;;;4990573;28;20041;-74
2021/12/28 07:31:39;;;;;;;2.70;0.90;;;7.50;99.90;;;;;;4993405;28;20117;-73
2021/12/28 07:34:05;;;;;;;1.80;0.73;;;7.70;99.90;;;;;;4990785;28;20030;-73
2021/12/28 07:36:30;;;;;;;4.68;1.83;;;7.70;99.90;;;;;;5001475;28;20123;-73
2021/12/28 07:38:56;;;;;;;2.25;0.63;;;7.70;99.90;;;;;;4990765;28;20169;-73
2021/12/28 07:41:22;;;;;;;3.25;0.60;;;7.70;99.90;;;;;;4990160;28;20042;-73
2021/12/28 07:43:48;;;;;;;0.95;0.50;;;7.70;99.90;;;;;;4986390;28;20085;-73
2021/12/28 07:46:14;;;;;;;2.38;0.90;;;7.70;99.90;;;;;;4989916;28;20438;-72
2021/12/28 07:48:41;;;;;;;2.15;0.50;;;7.70;99.90;;;;;;4987891;28;20176;-73
2021/12/28 07:51:07;;;;;;;2.70;0.57;;;7.60;99.90;;;;;;4988129;28;20042;-71
2021/12/28 07:53:34;;;;;;;1.35;0.57;;;7.70;99.90;;;;;;4989967;28;20026;-71
2021/12/28 07:56:00;;;;;;;1.45;0.57;;;7.80;99.90;;;;;;4989455;28;20120;-73
2021/12/28 07:58:26;;;;;;;0.70;0.50;;;7.70;99.90;;;;;;4990088;28;20382;-71
2021/12/28 08:00:52;;;;;;;1.00;0.60;;;7.80;99.90;;;;;;4987345;28;20072;-72
2021/12/28 08:03:19;;;;;;;2.15;0.60;;;7.90;99.90;;;;;;4988838;28;20562;-73
2021/12/28 08:05:45;;;;;;;2.25;0.65;;;8.00;99.90;;;;;;4988515;28;20031;-72
2021/12/28 08:08:11;;;;;;;2.80;0.60;;;7.80;99.90;;;;;;4989664;28;20080;-73
2021/12/28 08:10:37;;;;;;;1.27;0.50;;;7.90;99.90;;;;;;4988721;28;20042;-72
2021/12/28 08:13:03;;;;;;;2.22;0.70;;;8.00;99.90;;;;;;4990047;28;20089;-73
2021/12/28 08:15:29;;;;;;;1.10;0.63;;;7.90;99.90;;;;;;4989870;28;20034;-73
2021/12/28 08:17:55;;;;;;;2.63;0.60;;;7.90;99.90;;;;;;4989444;28;20391;-74
2021/12/28 08:20:21;;;;;;;1.85;0.90;;;7.90;99.90;;;;;;4989006;28;20476;-73
2021/12/28 08:22:48;;;;;;;2.58;0.68;;;7.90;99.90;;;;;;4988903;28;20494;-73
2021/12/28 08:25:17;;;;;;;2.78;0.52;;;7.90;99.90;;;;;;4990307;28;20467;-74
2021/12/28 08:27:43;;;;;;;1.20;0.50;;;7.80;99.90;;;;;;4995690;28;20141;-73
2021/12/28 08:30:11;;;;;;;1.98;0.60;;;7.90;99.90;;;;;;4993356;28;20034;-73
2021/12/28 08:32:37;;;;;;;2.08;0.68;;;7.90;99.90;;;;;;4995292;28;20034;-74
2021/12/28 08:35:05;;;;;;;2.38;0.60;;;7.90;99.90;;;;;;4992232;28;20023;-76
2021/12/28 08:37:31;;;;;;;2.30;0.70;;;7.90;99.90;;;;;;4997035;28;20081;-74
2021/12/28 08:39:57;;;;;;;1.63;0.70;;;7.90;99.90;;;;;;4988023;28;20046;-73
2021/12/28 08:42:23;;;;;;;1.10;0.70;;;8.00;99.90;;;;;;4989393;28;20050;-73
2021/12/28 08:44:49;;;;;;;4.07;0.70;;;8.00;99.90;;;;;;4988297;28;20034;-73
2021/12/28 08:47:15;;;;;;;1.83;0.82;;;8.00;99.90;;;;;;4988290;28;20100;-72
2021/12/28 08:49:41;;;;;;;3.40;1.13;;;8.00;99.90;;;;;;4987692;28;20121;-72
2021/12/28 08:52:07;;;;;;;2.33;0.50;;;7.90;99.90;;;;;;4988458;28;20756;-73
2021/12/28 08:54:34;;;;;;;1.42;0.80;;;8.00;99.90;;;;;;4988189;28;20030;-73
2021/12/28 08:57:00;;;;;;;4.68;0.50;;;8.00;99.90;;;;;;4987407;28;20382;-74
2021/12/28 08:59:26;;;;;;;1.70;0.68;;;8.10;99.90;;;;;;4988625;28;20030;-73
2021/12/28 09:01:53;;;;;;;1.92;0.50;;;8.30;99.90;;;;;;4987955;28;20031;-72
2021/12/28 09:04:20;;;;;;;0.77;0.40;;;8.20;99.90;;;;;;4988592;28;20014;-73
2021/12/28 09:06:47;;;;;;;1.92;0.63;;;8.30;99.90;;;;;;4987845;28;20045;-72
2021/12/28 09:09:12;;;;;;;1.23;0.43;;;8.20;99.90;;;;;;4987994;28;20495;-73
2021/12/28 09:11:38;;;;;;;2.22;0.80;;;8.20;99.90;;;;;;4986155;28;20108;-74
2021/12/28 09:14:04;;;;;;;2.55;0.70;;;8.10;99.90;;;;;;4963687;28;20073;-79
2021/12/28 09:16:30;;;;;;;1.27;0.50;;;8.10;99.90;;;;;;4972022;28;20082;-77
2021/12/28 09:18:56;;;;;;;1.38;0.60;;;8.10;99.90;;;;;;4978741;28;20798;-76
2021/12/28 09:21:22;;;;;;;0.80;0.40;;;8.10;99.90;;;;;;4975322;28;20651;-74
2021/12/28 09:23:48;;;;;;;0.98;0.50;;;8.10;99.90;;;;;;5004609;28;20731;-78
2021/12/28 09:26:13;;;;;;;1.67;0.40;;;8.10;99.90;;;;;;4992907;28;20038;-76
2021/12/28 09:28:39;;;;;;;0.88;0.45;;;8.10;99.90;;;;;;4987458;28;20038;-70
2021/12/28 09:31:05;;;;;;;1.88;0.40;;;8.10;99.90;;;;;;4995585;28;20117;-72
2021/12/28 09:33:30;;;;;;;0.90;0.47;;;8.10;99.90;;;;;;4988577;28;20069;-72
2021/12/28 09:35:57;;;;;;;1.73;0.40;;;8.20;99.90;;;;;;4947763;28;1144615;-71
2021/12/28 09:38:24;;;;;;;1.77;1.15;;;8.20;99.90;;;;;;4987215;28;20054;-70
2021/12/28 09:40:51;;;;;;;1.25;0.50;;;8.20;99.90;;;;;;4989747;28;20034;-72
2021/12/28 09:43:17;;;;;;;2.13;0.30;;;8.20;99.90;;;;;;4992936;28;20034;-72
2021/12/28 09:45:43;;;;;;;0.85;0.30;;;8.20;99.90;;;;;;4991784;28;20027;-72
2021/12/28 09:48:10;;;;;;;1.00;0.32;;;8.30;99.90;;;;;;4992837;28;20060;-72
2021/12/28 09:50:36;;;;;;;1.17;0.50;;;8.40;99.90;;;;;;4991163;28;20035;-70
2021/12/28 09:53:03;;;;;;;0.52;0.30;;;8.50;99.90;;;;;;4991239;28;20044;-72
2021/12/28 09:55:30;;;;;;;0.47;0.20;;;8.60;99.90;;;;;;4993274;28;20070;-72
2021/12/28 09:57:57;;;;;;;1.25;0.40;;;8.60;99.90;;;;;;4991820;28;20735;-71
2021/12/28 10:00:23;;;;;;;1.08;0.30;;;8.60;99.90;;;;;;4992976;28;20121;-72
2021/12/28 10:02:50;;;;;;;0.40;0.20;;;8.60;99.90;;;;;;4991809;28;20067;-72
2021/12/28 10:05:20;;;;;;;1.00;0.22;;;8.70;99.90;;;;;;4992926;28;20039;-72
2021/12/28 10:07:54;;;;;;;;;;;8.70;99.90;;;;;;4992133;28;20054;-71
2021/12/28 10:10:20;;;;;;;1.17;0.30;;;8.80;99.90;;;;;;4991436;28;19917;-71
2021/12/28 10:12:52;;;;;;;0.70;0.30;;;8.70;99.90;;;;;;4991830;28;20030;-71
2021/12/28 10:15:24;;;;;;;0.73;0.28;;;8.70;99.90;;;;;;4992654;28;20038;-72
2021/12/28 10:17:53;;;;;;;1.45;0.28;;;8.70;99.90;;;;;;4991310;28;20026;-71
2021/12/28 10:20:26;;;;;;;0.60;0.20;;;8.70;99.90;;;;;;4992580;28;20054;-72
2021/12/28 10:22:58;;;;;;;1.85;0.30;;;8.60;99.90;;;;;;4989579;28;20050;-73
2021/12/28 10:25:27;;;;;;;1.02;0.40;;;8.60;99.90;;;;;;4991692;28;20058;-73
2021/12/28 10:27:57;;;;;;;0.90;0.30;;;8.70;99.90;;;;;;4992293;28;20046;-72
2021/12/28 10:30:29;;;;;;;0.38;0.20;;;8.70;99.90;;;;;;4993302;28;20310;-72
2021/12/28 10:32:58;;;;;;;0.47;0.20;;;8.60;99.90;;;;;;4997525;28;20030;-72
2021/12/28 10:35:27;;;;;;;0.70;0.30;;;8.60;99.90;;;;;;4992029;28;20038;-73
2021/12/28 10:38:05;;;;;;;0.47;0.20;;;8.60;99.90;;;;;;4994102;28;20064;-73
2021/12/28 10:40:32;;;;;;;0.60;0.20;;;8.70;99.90;;;;;;4997393;28;20518;-72
2021/12/28 10:43:10;;;;;;;0.77;0.30;;;8.70;99.90;;;;;;4982210;28;20109;-73
2021/12/28 10:45:41;;;;;;;0.98;0.10;;;8.70;99.90;;;;;;4983340;28;20125;-72
2021/12/28 10:48:22;;;;;;;0.28;0.13;;;8.80;99.90;;;;;;4991789;28;20038;-73
2021/12/28 10:51:08;;;;;;;0.35;0.13;;;8.80;99.90;;;;;;4993831;28;20035;-73
2021/12/28 10:54:22;;;;;;;2.55;0.30;;;8.90;99.90;;;;;;4996409;28;20045;-73
2021/12/28 10:56:56;;;;;;;0.32;0.20;;;8.90;99.90;;;;;;4986399;28;20398;-74
2021/12/28 10:59:30;;;;;;;1.70;0.40;;;8.90;99.90;;;;;;4991097;28;20494;-73
2021/12/28 11:01:55;;;;;;;1.52;0.20;;;8.80;99.90;;;;;;4993068;28;20106;-73
2021/12/28 11:04:21;;;;;;;0.45;0.20;;;8.80;99.90;;;;;;4992290;28;20113;-73
2021/12/28 11:06:52;;;;;;;0.98;0.40;;;8.90;99.90;;;;;;4991827;28;20073;-72
2021/12/28 11:09:23;;;;;;;0.75;0.30;;;9.00;99.90;;;;;;4983710;28;20034;-73
2021/12/28 11:11:51;;;;;;;2.08;0.50;;;9.00;99.90;;;;;;4988031;28;20522;-72
2021/12/28 11:14:22;;;;;;;1.40;0.50;;;9.10;99.90;;;;;;4990968;28;20096;-72
2021/12/28 11:16:54;;;;;;;3.60;0.60;;;9.10;99.90;;;;;;4990509;28;20076;-73
2021/12/28 11:19:37;;;;;;;0.98;0.40;;;9.20;99.90;;;;;;4981032;28;20026;-72
2021/12/28 11:22:06;;;;;;;0.60;0.30;;;9.30;99.90;;;;;;4988791;28;20520;-72
2021/12/28 11:24:39;;;;;;;1.35;0.32;;;9.30;99.90;;;;;;4994160;28;20046;-72
2021/12/28 11:27:06;;;;;;;1.17;0.30;;;9.40;99.90;;;;;;4990442;28;20037;-72
2021/12/28 11:29:40;;;;;;;1.30;0.52;;;9.40;99.90;;;;;;4993761;28;20062;-73
2021/12/28 11:32:16;;;;;;;0.85;0.40;;;9.40;99.90;;;;;;4987493;28;20360;-71
2021/12/28 11:34:43;;;;;;;1.45;0.60;;;9.50;99.90;;;;;;4989815;28;20027;-74
2021/12/28 11:37:19;;;;;;;1.95;0.40;;;9.60;99.90;;;;;;4993505;28;20046;-71
2021/12/28 11:39:55;;;;;;;1.33;0.35;;;9.60;99.90;;;;;;5000380;28;20033;-74
2021/12/28 11:42:22;;;;;;;1.13;0.50;;;9.60;99.90;;;;;;5001051;28;20493;-72
2021/12/28 11:44:48;;;;;;;1.00;0.30;;;9.70;99.90;;;;;;4997146;28;20026;-73
2021/12/28 11:47:15;;;;;;;0.68;0.38;;;9.70;99.90;;;;;;4988761;28;20042;-72
2021/12/28 11:49:44;;;;;;;1.52;0.43;;;9.70;99.90;;;;;;4993031;28;20038;-70
2021/12/28 11:52:13;;;;;;;1.05;0.30;;;9.70;99.90;;;;;;4989583;28;20734;-68
2021/12/28 11:54:44;;;;;;;1.17;0.50;;;9.70;99.90;;;;;;4992119;28;20057;-69
2021/12/28 11:57:13;;;;;;;1.60;0.40;;;9.70;99.90;;;;;;4994100;28;20034;-69
2021/12/28 11:59:40;;;;;;;1.58;0.30;;;9.70;99.90;;;;;;4990688;28;20062;-69
2021/12/28 12:02:09;;;;;;;1.17;0.45;;;9.70;99.90;;;;;;4988565;28;20028;-69
2021/12/28 12:04:34;;;;;;;1.30;0.50;;;9.70;99.90;;;;;;4989166;28;20037;-69
2021/12/28 12:07:16;;;;;;;1.00;0.50;;;9.70;99.90;;;;;;4995729;28;20042;-70
2021/12/28 12:09:53;;;;;;;1.48;0.82;;;9.70;99.90;;;;;;4993268;28;20077;-69
2021/12/28 12:12:33;;;;;;;2.00;0.80;;;9.60;99.90;;;;;;4999467;28;20031;-69
2021/12/28 12:14:58;;;;;;;1.83;0.80;;;9.70;99.90;;;;;;5000822;28;20080;-68
2021/12/28 12:17:45;;;;;;;1.60;0.50;;;9.70;99.90;;;;;;4998421;28;20035;-79
2021/12/28 12:20:17;;;;;;;2.33;0.80;;;9.80;99.90;;;;;;4998453;28;20408;-73
2021/12/28 12:22:48;;;;;;;2.05;0.73;;;9.80;99.90;;;;;;4995972;28;20045;-71
2021/12/28 12:25:20;;;;;;;1.58;0.70;;;9.80;99.90;;;;;;4989773;28;20022;-75
2021/12/28 12:27:56;;;;;;;1.13;0.70;;;9.80;99.90;;;;;;4997465;28;20076;-74
2021/12/28 12:30:27;;;;;;;1.40;0.70;;;9.80;99.90;;;;;;4989655;28;20037;-74
2021/12/28 12:33:04;;;;;;;2.50;0.70;;;9.80;99.90;;;;;;4991128;28;20037;-72
2021/12/28 12:35:33;;;;;;;1.55;0.75;;;9.80;99.90;;;;;;4996577;28;20026;-74
2021/12/28 12:38:16;;;;;;;3.53;1.33;;;9.80;99.90;;;;;;4999346;28;20564;-73
2021/12/28 12:41:05;;;;;;;1.15;0.60;;;9.80;99.90;;;;;;4988235;28;20403;-72
2021/12/28 12:43:39;;;;;;;1.80;0.80;;;9.90;99.90;;;;;;4988787;28;20078;-71
2021/12/28 12:46:23;;;;;;;1.90;0.80;;;9.90;99.90;;;;;;4986918;28;20592;-73
2021/12/28 12:48:54;;;;;;;1.00;0.55;;;9.90;99.90;;;;;;4988409;28;20495;-72
2021/12/28 12:51:27;;;;;;;2.20;0.50;;;9.90;99.90;;;;;;4995172;28;20034;-74
2021/12/28 12:53:59;;;;;;;1.00;0.30;;;10.00;99.90;;;;;;4990858;28;20054;-72
2021/12/28 12:56:26;;;;;;;2.22;0.50;;;10.00;99.90;;;;;;4987553;28;20034;-72
2021/12/28 12:58:54;;;;;;;2.45;0.40;;;10.00;99.90;;;;;;4988601;28;20109;-73